Time;durP1;ratioP1;P1;durP2;ratioP2;P2;SDS_P1;SDS_P2;PMS_P1;PMS_P2;Temp;Humidity;BMP_temperature;BMP_pressure;BME280_temperature;BME280_humidity;BME280_pressure;Samples;Min_cycle;Max_cycle;Signal;HPM_P1;HPM_P2
2024/01/26 00:00:55;;;;;;;41.50;13.98;;;8.50;99.90;;;;;;5245467;22;20025;-80
2024/01/26 00:02:56;;;;;;;45.22;13.82;;;8.80;99.90;;;;;;5245276;22;20081;-80
2024/01/26 00:04:57;;;;;;;41.95;13.38;;;9.10;99.90;;;;;;5245205;22;20106;-80
2024/01/26 00:06:58;;;;;;;43.70;13.15;;;8.90;99.90;;;;;;5245125;22;20015;-79
2024/01/26 00:09:12;;;;;;;51.35;14.07;;;8.90;99.90;;;;;;5245403;22;20042;-80
2024/01/26 00:11:16;;;;;;;49.78;14.52;;;8.30;99.90;;;;;;5245239;22;20080;-80
2024/01/26 00:13:16;;;;;;;49.22;14.30;;;8.30;99.90;;;;;;5217390;22;20011;-79
2024/01/26 00:15:17;;;;;;;48.00;15.65;;;8.30;99.90;;;;;;5217616;22;20035;-80
2024/01/26 00:17:18;;;;;;;54.03;15.32;;;8.30;99.90;;;;;;5245292;22;20022;-80
2024/01/26 00:19:19;;;;;;;43.08;15.18;;;8.40;99.90;;;;;;5244414;22;20023;-80
2024/01/26 00:21:19;;;;;;;49.50;14.15;;;8.40;99.90;;;;;;5245133;22;20317;-80
2024/01/26 00:23:20;;;;;;;51.92;15.35;;;8.40;99.90;;;;;;5245201;22;20007;-80
2024/01/26 00:25:21;;;;;;;55.20;15.73;;;8.40;99.90;;;;;;5217509;22;20099;-80
2024/01/26 00:27:22;;;;;;;55.30;14.30;;;8.40;99.90;;;;;;5245055;22;20053;-80
2024/01/26 00:29:22;;;;;;;49.72;15.30;;;8.80;99.90;;;;;;5245974;22;20018;-80
2024/01/26 00:31:24;;;;;;;53.38;16.40;;;8.50;99.90;;;;;;5246546;22;20099;-80
2024/01/26 00:33:25;;;;;;;51.92;16.40;;;8.50;99.90;;;;;;5246121;22;20017;-80
2024/01/26 00:35:26;;;;;;;53.83;15.57;;;9.10;99.90;;;;;;5247113;22;20019;-80
2024/01/26 00:37:27;;;;;;;50.72;15.85;;;8.60;99.90;;;;;;5246603;22;20018;-80
2024/01/26 00:39:27;;;;;;;52.08;14.93;;;8.60;99.90;;;;;;5246537;22;20015;-80
2024/01/26 00:41:28;;;;;;;54.28;16.30;;;8.60;99.90;;;;;;5218797;22;20023;-80
2024/01/26 00:43:29;;;;;;;52.53;16.63;;;8.80;99.90;;;;;;5246346;22;20423;-80
2024/01/26 00:45:30;;;;;;;52.33;15.95;;;8.60;99.90;;;;;;5246430;22;20014;-80
2024/01/26 00:47:30;;;;;;;52.08;16.13;;;8.70;99.90;;;;;;5218294;22;20019;-80
2024/01/26 00:49:31;;;;;;;50.75;16.02;;;8.60;99.90;;;;;;5246394;22;20433;-80
2024/01/26 00:51:32;;;;;;;57.97;18.30;;;8.70;99.90;;;;;;5246342;22;20068;-80
2024/01/26 00:53:32;;;;;;;53.17;16.40;;;8.70;99.90;;;;;;5245891;22;20018;-79
2024/01/26 00:55:33;;;;;;;54.28;17.17;;;9.00;99.90;;;;;;5219136;22;20050;-80
2024/01/26 00:57:34;;;;;;;50.10;15.68;;;8.70;99.90;;;;;;5246187;22;20017;-80
2024/01/26 00:59:35;;;;;;;56.83;15.82;;;8.70;99.90;;;;;;5246454;22;20015;-80
2024/01/26 01:01:36;;;;;;;39.53;13.07;;;9.40;99.90;;;;;;5245617;22;20010;-80
2024/01/26 01:03:37;;;;;;;46.67;15.35;;;9.50;99.90;;;;;;5246263;22;20014;-80
2024/01/26 01:05:39;;;;;;;44.35;15.88;;;8.80;99.90;;;;;;5246332;22;20341;-80
2024/01/26 01:07:39;;;;;;;43.42;13.75;;;8.80;99.90;;;;;;5246370;22;20037;-80
2024/01/26 01:09:41;;;;;;;43.45;14.63;;;9.30;99.90;;;;;;5246264;22;20023;-80
2024/01/26 01:11:42;;;;;;;42.72;14.27;;;8.90;99.90;;;;;;5246135;22;20018;-80
2024/01/26 01:13:43;;;;;;;45.53;14.02;;;8.90;99.90;;;;;;5246227;22;20011;-80
2024/01/26 01:15:44;;;;;;;43.85;14.18;;;8.90;99.90;;;;;;5245381;22;20014;-80
2024/01/26 01:17:48;;;;;;;37.78;14.15;;;8.90;99.90;;;;;;5246230;22;20067;-80
2024/01/26 01:19:48;;;;;;;50.90;16.80;;;9.60;99.90;;;;;;5245764;22;20015;-80
2024/01/26 01:21:51;;;;;;;42.30;15.20;;;9.00;99.90;;;;;;5218894;22;20500;-80
2024/01/26 01:23:52;;;;;;;48.30;16.05;;;9.00;99.90;;;;;;5246132;22;20023;-80
2024/01/26 01:25:53;;;;;;;47.78;16.17;;;9.50;99.90;;;;;;5246084;22;20046;-79
2024/01/26 01:27:53;;;;;;;48.97;16.35;;;9.00;99.90;;;;;;5245546;22;20017;-79
2024/01/26 01:29:54;;;;;;;46.72;16.05;;;9.60;99.90;;;;;;5245858;22;20022;-79
2024/01/26 01:31:55;;;;;;;44.22;14.77;;;9.00;99.90;;;;;;5246224;22;20119;-80
2024/01/26 01:33:56;;;;;;;40.58;13.77;;;9.10;99.90;;;;;;5245925;22;20011;-80
2024/01/26 01:35:56;;;;;;;45.63;14.10;;;9.50;99.90;;;;;;5245371;22;20068;-79
2024/01/26 01:37:57;;;;;;;40.20;13.80;;;9.10;99.90;;;;;;5246114;22;20019;-80
2024/01/26 01:39:58;;;;;;;37.42;12.93;;;10.10;99.90;;;;;;5218279;22;20046;-79
2024/01/26 01:41:58;;;;;;;35.20;13.75;;;9.70;99.90;;;;;;5245924;22;20007;-80
2024/01/26 01:43:59;;;;;;;32.05;11.60;;;9.10;99.90;;;;;;5246006;22;20060;-80
2024/01/26 01:46:00;;;;;;;32.63;12.13;;;9.10;99.90;;;;;;5245428;22;20015;-80
2024/01/26 01:48:01;;;;;;;31.42;11.70;;;9.20;99.90;;;;;;5218236;22;20023;-79
2024/01/26 01:50:01;;;;;;;29.33;10.77;;;9.80;99.90;;;;;;5245760;22;20022;-80
2024/01/26 01:52:05;;;;;;;28.98;10.48;;;9.20;99.90;;;;;;5245674;22;20023;-79
2024/01/26 01:54:06;;;;;;;26.52;10.25;;;9.20;99.90;;;;;;5245865;22;20021;-79
2024/01/26 01:56:11;;;;;;;25.25;10.70;;;9.60;99.90;;;;;;5245303;22;20020;-79
2024/01/26 01:58:13;;;;;;;25.80;10.73;;;9.70;99.90;;;;;;5245507;22;20071;-79
2024/01/26 02:00:16;;;;;;;25.25;11.35;;;9.20;99.90;;;;;;5245930;22;20015;-79
2024/01/26 02:02:18;;;;;;;27.80;10.93;;;9.20;99.90;;;;;;5245723;22;20019;-79
2024/01/26 02:04:18;;;;;;;25.23;10.02;;;9.70;99.90;;;;;;5245571;22;20086;-79
2024/01/26 02:06:19;;;;;;;23.50;10.25;;;9.40;99.90;;;;;;5245568;22;20010;-80
2024/01/26 02:08:21;;;;;;;22.38;9.43;;;9.30;99.90;;;;;;5218176;22;20051;-79
2024/01/26 02:10:21;;;;;;;32.85;9.98;;;9.30;99.90;;;;;;5245490;22;20434;-80
2024/01/26 02:12:22;;;;;;;19.40;9.23;;;9.30;99.90;;;;;;5217763;22;20116;-80
2024/01/26 02:14:25;;;;;;;22.30;9.95;;;9.40;99.90;;;;;;5245440;22;20442;-79
2024/01/26 02:16:26;;;;;;;23.65;10.45;;;9.60;99.90;;;;;;5245632;22;20022;-79
2024/01/26 02:18:26;;;;;;;27.00;10.52;;;9.50;99.90;;;;;;5245475;22;20019;-79
2024/01/26 02:20:27;;;;;;;22.33;10.70;;;9.40;99.90;;;;;;5245229;22;20464;-79
2024/01/26 02:22:28;;;;;;;20.83;10.50;;;9.40;99.90;;;;;;5218277;22;20064;-79
2024/01/26 02:24:28;;;;;;;19.45;9.38;;;9.40;99.90;;;;;;5244856;22;20022;-80
2024/01/26 02:26:29;;;;;;;19.48;10.02;;;9.40;99.90;;;;;;5245433;22;20464;-80
2024/01/26 02:28:30;;;;;;;21.23;10.00;;;9.50;99.90;;;;;;5245616;22;20014;-80
2024/01/26 02:30:33;;;;;;;27.58;10.60;;;10.10;99.90;;;;;;5245532;22;20085;-79
2024/01/26 02:32:34;;;;;;;21.48;9.90;;;9.70;99.90;;;;;;5245519;22;20429;-79
2024/01/26 02:34:34;;;;;;;19.05;10.15;;;9.70;99.90;;;;;;5244821;22;20072;-79
2024/01/26 02:36:36;;;;;;;23.08;11.13;;;9.50;99.90;;;;;;5218133;22;20030;-79
2024/01/26 02:38:37;;;;;;;21.33;11.27;;;10.00;99.90;;;;;;5245578;22;20026;-80
2024/01/26 02:40:37;;;;;;;20.67;10.13;;;10.00;99.90;;;;;;5245205;22;20015;-79
2024/01/26 02:42:38;;;;;;;24.40;12.18;;;9.50;99.90;;;;;;5245283;22;20006;-80
2024/01/26 02:44:39;;;;;;;20.58;10.27;;;9.50;99.90;;;;;;5245557;22;20064;-80
2024/01/26 02:46:39;;;;;;;20.67;10.85;;;9.50;99.90;;;;;;5245551;22;20018;-79
2024/01/26 02:48:40;;;;;;;21.83;10.00;;;10.00;99.90;;;;;;5245110;22;20018;-79
2024/01/26 02:50:41;;;;;;;20.98;10.98;;;9.50;99.90;;;;;;5245438;22;20019;-79
2024/01/26 02:52:41;;;;;;;20.65;10.88;;;9.90;99.90;;;;;;5245260;22;20022;-79
2024/01/26 02:54:42;;;;;;;20.50;10.48;;;9.50;99.90;;;;;;5245401;22;20011;-79
2024/01/26 02:56:43;;;;;;;22.88;10.38;;;9.80;99.90;;;;;;5192102;22;20016;-79
2024/01/26 02:58:43;;;;;;;18.80;9.57;;;9.50;99.90;;;;;;5245404;22;20015;-79
2024/01/26 03:00:44;;;;;;;19.90;10.05;;;9.50;99.90;;;;;;5217613;22;20050;-79
2024/01/26 03:02:45;;;;;;;21.15;10.52;;;9.50;99.90;;;;;;5245485;22;20019;-79
2024/01/26 03:04:45;;;;;;;21.65;10.20;;;9.60;99.90;;;;;;5245236;22;20310;-79
2024/01/26 03:06:47;;;;;;;20.23;9.35;;;9.50;99.90;;;;;;5245159;22;20023;-79
2024/01/26 03:08:47;;;;;;;20.58;9.25;;;9.60;99.90;;;;;;5244695;22;20029;-79
2024/01/26 03:10:50;;;;;;;19.90;10.25;;;9.60;99.90;;;;;;5217617;22;20019;-79
2024/01/26 03:12:51;;;;;;;21.45;11.15;;;9.60;99.90;;;;;;5245235;22;20033;-79
2024/01/26 03:14:52;;;;;;;20.13;10.43;;;9.60;99.90;;;;;;5245427;22;20046;-79
2024/01/26 03:16:53;;;;;;;21.52;10.00;;;9.60;99.90;;;;;;5245153;22;20015;-79
2024/01/26 03:18:53;;;;;;;22.20;10.75;;;10.30;99.90;;;;;;5245376;22;20336;-80
2024/01/26 03:20:54;;;;;;;23.15;10.90;;;9.90;99.90;;;;;;5201932;22;20021;-79
2024/01/26 03:22:54;;;;;;;23.20;11.02;;;9.60;99.90;;;;;;5192942;22;20026;-79
2024/01/26 03:24:55;;;;;;;22.10;11.00;;;9.60;99.90;;;;;;5193670;22;20306;-79
2024/01/26 03:26:56;;;;;;;21.25;10.27;;;9.60;99.90;;;;;;5193744;22;20047;-79
2024/01/26 03:28:56;;;;;;;22.17;10.40;;;9.70;99.90;;;;;;5193393;22;20019;-79
2024/01/26 03:30:58;;;;;;;20.90;10.68;;;10.00;99.90;;;;;;5193901;22;20351;-79
2024/01/26 03:32:59;;;;;;;21.63;9.20;;;9.70;99.90;;;;;;5193442;22;20008;-80
2024/01/26 03:35:00;;;;;;;22.92;10.85;;;9.60;99.90;;;;;;5193780;22;20065;-80
2024/01/26 03:37:01;;;;;;;21.10;9.90;;;9.80;99.90;;;;;;5193140;22;20041;-80
2024/01/26 03:39:03;;;;;;;21.48;10.98;;;9.60;99.90;;;;;;5193277;22;20020;-80
2024/01/26 03:41:04;;;;;;;23.98;10.25;;;9.70;99.90;;;;;;5193613;22;20095;-80
2024/01/26 03:43:05;;;;;;;19.27;9.88;;;9.70;99.90;;;;;;5193599;22;20015;-80
2024/01/26 03:45:06;;;;;;;22.33;9.68;;;9.70;99.90;;;;;;5193051;22;20019;-80
2024/01/26 03:47:07;;;;;;;24.80;10.25;;;9.70;99.90;;;;;;5193626;22;20026;-79
2024/01/26 03:49:09;;;;;;;22.15;10.02;;;9.70;99.90;;;;;;5193660;22;20091;-80
2024/01/26 03:51:11;;;;;;;24.67;10.98;;;9.70;99.90;;;;;;5192086;22;20034;-80
2024/01/26 03:53:12;;;;;;;20.55;10.25;;;9.70;99.90;;;;;;5193136;22;20326;-80
2024/01/26 03:55:13;;;;;;;22.52;10.23;;;9.70;99.90;;;;;;5193693;22;20016;-80
2024/01/26 03:57:13;;;;;;;20.70;9.88;;;9.70;99.90;;;;;;5193437;22;20019;-80
2024/01/26 03:59:14;;;;;;;22.83;11.00;;;9.70;99.90;;;;;;5193451;22;20039;-80
2024/01/26 04:01:15;;;;;;;25.27;11.23;;;10.40;99.90;;;;;;5193152;22;20015;-80
2024/01/26 04:03:16;;;;;;;23.77;10.30;;;9.70;99.90;;;;;;5193213;22;20500;-80
2024/01/26 04:05:16;;;;;;;18.80;9.38;;;9.70;99.90;;;;;;5192770;22;20051;-80
2024/01/26 04:07:17;;;;;;;19.20;9.20;;;10.00;99.90;;;;;;5193282;22;20385;-80
2024/01/26 04:09:18;;;;;;;25.88;11.32;;;9.70;99.90;;;;;;5193503;22;20314;-80
2024/01/26 04:11:18;;;;;;;21.63;9.48;;;9.70;99.90;;;;;;5193452;22;20019;-81
2024/01/26 04:13:19;;;;;;;21.88;9.65;;;9.70;99.90;;;;;;5191472;22;20016;-80
2024/01/26 04:15:20;;;;;;;22.58;8.98;;;9.90;99.90;;;;;;5193165;22;20015;-80
2024/01/26 04:17:21;;;;;;;21.52;9.30;;;9.70;99.90;;;;;;5193159;22;20357;-80
2024/01/26 04:19:21;;;;;;;24.63;9.73;;;10.20;99.90;;;;;;5193555;22;20011;-80
2024/01/26 04:21:23;;;;;;;20.35;8.70;;;10.10;99.90;;;;;;5236592;22;20039;-80
2024/01/26 04:23:24;;;;;;;21.75;9.27;;;9.70;99.90;;;;;;5244976;22;20021;-80
2024/01/26 04:25:24;;;;;;;21.92;8.32;;;9.70;99.90;;;;;;5244441;22;20022;-80
2024/01/26 04:27:25;;;;;;;21.40;9.75;;;9.70;99.90;;;;;;5245057;22;20022;-80
2024/01/26 04:29:26;;;;;;;18.65;8.75;;;9.70;99.90;;;;;;5244950;22;20011;-80
2024/01/26 04:31:26;;;;;;;16.88;8.43;;;9.70;99.90;;;;;;5244730;22;20064;-80
2024/01/26 04:33:30;;;;;;;21.02;9.07;;;9.70;99.90;;;;;;5244769;22;20430;-80
2024/01/26 04:35:31;;;;;;;21.75;9.60;;;9.80;99.90;;;;;;5244673;22;20387;-80
2024/01/26 04:37:32;;;;;;;17.73;9.10;;;9.80;99.90;;;;;;5244874;22;20452;-80
2024/01/26 04:39:33;;;;;;;22.65;9.85;;;9.80;99.90;;;;;;5244391;22;20015;-80
2024/01/26 04:41:34;;;;;;;20.27;9.15;;;9.80;99.90;;;;;;5244596;22;20007;-80
2024/01/26 04:43:34;;;;;;;21.45;9.43;;;10.10;99.90;;;;;;5244661;22;20011;-80
2024/01/26 04:45:35;;;;;;;22.10;10.10;;;10.10;99.90;;;;;;5244426;22;20026;-80
2024/01/26 04:47:36;;;;;;;25.80;9.95;;;9.90;99.90;;;;;;5244741;22;20349;-80
2024/01/26 04:49:37;;;;;;;24.38;9.35;;;10.60;99.90;;;;;;5243951;22;20030;-80
2024/01/26 04:51:40;;;;;;;22.40;10.98;;;10.60;99.90;;;;;;5244762;22;20336;-80
2024/01/26 04:53:41;;;;;;;23.60;9.50;;;10.00;99.90;;;;;;5244415;22;20018;-80
2024/01/26 04:55:42;;;;;;;22.67;9.90;;;9.90;99.90;;;;;;5244916;22;20333;-80
2024/01/26 04:57:42;;;;;;;19.20;9.75;;;10.20;99.90;;;;;;5244445;22;20015;-80
2024/01/26 04:59:43;;;;;;;19.17;8.63;;;10.70;99.90;;;;;;5244326;22;20011;-80
2024/01/26 05:01:44;;;;;;;23.48;10.65;;;10.00;99.90;;;;;;5244303;22;20429;-80
2024/01/26 05:03:44;;;;;;;18.77;9.27;;;10.60;99.90;;;;;;5244871;22;20038;-80
2024/01/26 05:05:45;;;;;;;22.63;10.13;;;10.00;99.90;;;;;;5244434;22;20064;-80
2024/01/26 05:07:46;;;;;;;20.95;9.68;;;10.00;99.90;;;;;;5244405;22;20015;-80
2024/01/26 05:09:46;;;;;;;23.98;9.30;;;10.30;99.90;;;;;;5244180;22;20015;-80
2024/01/26 05:11:47;;;;;;;16.48;8.60;;;10.10;99.90;;;;;;5244769;22;20019;-80
2024/01/26 05:13:48;;;;;;;23.65;8.82;;;10.00;99.90;;;;;;5244394;22;20433;-80
2024/01/26 05:15:48;;;;;;;21.50;9.40;;;10.10;99.90;;;;;;5245822;22;20049;-80
2024/01/26 05:17:49;;;;;;;19.48;9.82;;;10.10;99.90;;;;;;5246015;22;20100;-80
2024/01/26 05:19:50;;;;;;;16.98;8.30;;;10.30;99.90;;;;;;5218225;22;20025;-80
2024/01/26 05:21:50;;;;;;;13.77;7.25;;;11.10;99.90;;;;;;5245952;22;20015;-80
2024/01/26 05:23:51;;;;;;;18.17;9.48;;;11.10;99.90;;;;;;5245550;22;20022;-80
2024/01/26 05:25:52;;;;;;;17.35;7.45;;;10.60;99.90;;;;;;5192809;22;20087;-80
2024/01/26 05:27:52;;;;;;;15.40;7.88;;;10.20;99.90;;;;;;5246028;22;20102;-79
2024/01/26 05:29:53;;;;;;;21.48;9.25;;;10.70;99.90;;;;;;5245998;22;20014;-79
2024/01/26 05:31:54;;;;;;;19.60;8.88;;;10.30;99.90;;;;;;5246053;22;20021;-79
2024/01/26 05:33:54;;;;;;;17.48;8.70;;;10.40;99.90;;;;;;5246027;22;20414;-79
2024/01/26 05:35:55;;;;;;;17.95;9.13;;;11.10;99.90;;;;;;5246071;22;20021;-79
2024/01/26 05:37:56;;;;;;;16.25;8.38;;;10.60;99.90;;;;;;5245495;22;20068;-79
2024/01/26 05:39:56;;;;;;;17.00;7.45;;;10.80;99.90;;;;;;5245604;22;20054;-79
2024/01/26 05:41:57;;;;;;;16.85;7.40;;;10.30;99.90;;;;;;5245507;22;20020;-79
2024/01/26 05:43:58;;;;;;;18.00;8.77;;;10.30;99.90;;;;;;5218297;22;20090;-79
2024/01/26 05:45:58;;;;;;;21.63;8.32;;;10.50;99.90;;;;;;5245685;22;20093;-79
2024/01/26 05:47:59;;;;;;;16.38;8.75;;;10.90;99.90;;;;;;5245862;22;20010;-79
2024/01/26 05:50:00;;;;;;;13.55;7.68;;;10.20;99.90;;;;;;5245923;22;20019;-79
2024/01/26 05:52:01;;;;;;;19.15;8.50;;;10.20;99.90;;;;;;5245382;22;20087;-79
2024/01/26 05:54:02;;;;;;;19.88;8.73;;;10.30;99.90;;;;;;5218126;22;20038;-78
2024/01/26 05:56:02;;;;;;;18.92;9.00;;;10.20;99.90;;;;;;5218112;22;20026;-79
2024/01/26 05:58:03;;;;;;;18.45;8.30;;;10.20;99.90;;;;;;5218439;22;20015;-77
2024/01/26 06:00:05;;;;;;;14.68;7.80;;;10.60;99.90;;;;;;5246890;22;20026;-77
2024/01/26 06:02:05;;;;;;;18.95;8.02;;;10.30;99.90;;;;;;5247585;22;20015;-78
2024/01/26 06:04:08;;;;;;;16.25;7.93;;;10.30;99.90;;;;;;5245665;22;20085;-79
2024/01/26 06:06:08;;;;;;;16.42;7.95;;;10.70;99.90;;;;;;5246365;22;20026;-78
2024/01/26 06:08:10;;;;;;;15.13;7.85;;;10.60;99.90;;;;;;5247438;22;20093;-79
2024/01/26 06:10:11;;;;;;;13.90;7.78;;;10.30;99.90;;;;;;5246705;22;20014;-79
2024/01/26 06:12:12;;;;;;;14.20;7.90;;;10.30;99.90;;;;;;5245571;22;20062;-79
2024/01/26 06:14:13;;;;;;;16.13;8.10;;;10.50;99.90;;;;;;5245303;22;20022;-78
2024/01/26 06:16:14;;;;;;;15.05;8.23;;;10.40;99.90;;;;;;5245648;22;20429;-78
2024/01/26 06:18:15;;;;;;;17.42;8.23;;;10.40;99.90;;;;;;5218277;22;20030;-79
2024/01/26 06:20:15;;;;;;;17.60;8.20;;;10.40;99.90;;;;;;5245596;22;20022;-79
2024/01/26 06:22:16;;;;;;;15.15;7.95;;;10.80;99.90;;;;;;5245513;22;20072;-79
2024/01/26 06:24:17;;;;;;;17.30;7.60;;;10.80;99.90;;;;;;5245346;22;20018;-79
2024/01/26 06:26:19;;;;;;;13.05;7.65;;;11.00;99.90;;;;;;5244508;22;20019;-79
2024/01/26 06:28:20;;;;;;;21.02;8.35;;;10.90;99.90;;;;;;5244607;22;20046;-79
2024/01/26 06:30:21;;;;;;;18.48;8.73;;;10.40;99.90;;;;;;5244350;22;20014;-79
2024/01/26 06:32:21;;;;;;;15.50;7.60;;;10.60;99.90;;;;;;5245290;22;20015;-79
2024/01/26 06:34:23;;;;;;;14.93;8.38;;;11.10;99.90;;;;;;5244793;22;20059;-79
2024/01/26 06:36:24;;;;;;;16.50;8.65;;;10.70;99.90;;;;;;5245507;22;20085;-79
2024/01/26 06:38:25;;;;;;;13.98;7.18;;;10.50;99.90;;;;;;5245192;22;20018;-79
2024/01/26 06:40:26;;;;;;;15.75;8.10;;;11.10;99.90;;;;;;5245636;22;20026;-78
2024/01/26 06:42:27;;;;;;;16.77;8.55;;;10.50;99.90;;;;;;5245591;22;20017;-79
2024/01/26 06:44:27;;;;;;;15.20;7.45;;;10.70;99.90;;;;;;5245381;22;20069;-78
2024/01/26 06:46:28;;;;;;;16.88;6.03;;;10.70;99.90;;;;;;5245103;22;20058;-79
2024/01/26 06:48:29;;;;;;;15.77;8.25;;;10.80;99.90;;;;;;5245009;22;20015;-79
2024/01/26 06:50:30;;;;;;;14.10;6.82;;;10.50;99.90;;;;;;5245486;22;20022;-78
2024/01/26 06:52:34;;;;;;;14.88;7.40;;;10.80;99.90;;;;;;5245379;22;20014;-78
2024/01/26 06:54:35;;;;;;;12.80;7.18;;;10.50;99.90;;;;;;5245314;22;20018;-78
2024/01/26 06:56:35;;;;;;;14.57;7.90;;;10.50;99.90;;;;;;5245595;22;20014;-78
2024/01/26 06:58:36;;;;;;;11.05;5.65;;;11.20;99.90;;;;;;5244974;22;20514;-78
2024/01/26 07:00:37;;;;;;;12.13;5.85;;;10.50;99.90;;;;;;5245283;22;20015;-78
2024/01/26 07:02:37;;;;;;;16.30;7.55;;;10.70;99.90;;;;;;5245246;22;20050;-78
2024/01/26 07:04:38;;;;;;;12.00;5.63;;;11.00;99.90;;;;;;5245319;22;20008;-78
2024/01/26 07:06:38;;;;;;;11.45;5.82;;;10.50;99.90;;;;;;5245191;22;20019;-78
2024/01/26 07:08:39;;;;;;;11.18;5.50;;;10.50;99.90;;;;;;5245157;22;20018;-78
2024/01/26 07:10:40;;;;;;;11.73;5.90;;;10.60;99.90;;;;;;5244961;22;20019;-78
2024/01/26 07:12:41;;;;;;;9.95;5.13;;;10.60;99.90;;;;;;5244940;22;20837;-78
2024/01/26 07:14:42;;;;;;;10.27;4.80;;;10.80;99.90;;;;;;5244841;22;20097;-78
2024/01/26 07:16:43;;;;;;;11.52;5.75;;;10.60;99.90;;;;;;5244917;22;20464;-78
2024/01/26 07:18:43;;;;;;;9.77;4.82;;;10.90;99.90;;;;;;5245016;22;20018;-79
2024/01/26 07:20:44;;;;;;;13.35;5.75;;;11.00;99.90;;;;;;5203636;22;20014;-78
2024/01/26 07:22:45;;;;;;;9.85;4.63;;;10.60;99.90;;;;;;5193267;22;20007;-78
2024/01/26 07:24:45;;;;;;;11.77;4.30;;;10.60;99.90;;;;;;5193112;22;20379;-78
2024/01/26 07:26:47;;;;;;;8.20;4.47;;;10.70;99.90;;;;;;5193655;22;20016;-78
2024/01/26 07:28:49;;;;;;;9.80;4.53;;;10.60;99.90;;;;;;5193642;22;20018;-78
2024/01/26 07:30:50;;;;;;;10.10;4.15;;;10.70;99.90;;;;;;5193568;22;20023;-78
2024/01/26 07:32:51;;;;;;;9.38;4.50;;;10.60;99.90;;;;;;5193460;22;20082;-78
2024/01/26 07:34:51;;;;;;;8.60;4.85;;;10.60;99.90;;;;;;5193318;22;20012;-78
2024/01/26 07:36:52;;;;;;;7.28;4.15;;;10.60;99.90;;;;;;5191236;22;20024;-78
2024/01/26 07:38:53;;;;;;;7.97;3.78;;;10.60;99.90;;;;;;5193205;22;20016;-81
2024/01/26 07:40:54;;;;;;;14.23;4.72;;;10.90;99.90;;;;;;5193392;22;20347;-78
2024/01/26 07:42:54;;;;;;;9.38;4.18;;;10.70;99.90;;;;;;5192652;22;20051;-77
2024/01/26 07:44:55;;;;;;;8.15;3.85;;;10.60;99.90;;;;;;5193293;22;20470;-77
2024/01/26 07:46:56;;;;;;;8.35;3.92;;;10.70;99.90;;;;;;5192918;22;20077;-78
2024/01/26 07:48:56;;;;;;;8.55;4.35;;;10.70;99.90;;;;;;5193463;22;20019;-77
2024/01/26 07:50:57;;;;;;;6.85;3.70;;;10.70;99.90;;;;;;5193553;22;20016;-79
2024/01/26 07:52:58;;;;;;;6.60;3.67;;;10.70;99.90;;;;;;5193396;22;20086;-77
2024/01/26 07:54:58;;;;;;;8.55;4.28;;;11.10;99.90;;;;;;5193012;22;20016;-77
2024/01/26 07:56:59;;;;;;;8.52;4.28;;;10.70;99.90;;;;;;5193281;22;20051;-79
2024/01/26 07:59:00;;;;;;;7.70;3.35;;;10.80;99.90;;;;;;5193152;22;20016;-78
2024/01/26 08:01:00;;;;;;;5.32;3.40;;;11.10;99.90;;;;;;5193337;22;20031;-79
2024/01/26 08:03:01;;;;;;;8.45;3.30;;;11.30;99.90;;;;;;5192463;22;20045;-78
2024/01/26 08:05:02;;;;;;;6.43;3.60;;;10.80;99.90;;;;;;5193183;22;20065;-78
2024/01/26 08:07:03;;;;;;;7.47;3.15;;;10.70;99.90;;;;;;5193464;22;20020;-78
2024/01/26 08:09:04;;;;;;;6.20;3.67;;;10.80;99.90;;;;;;5192897;22;20012;-78
2024/01/26 08:11:05;;;;;;;6.43;3.38;;;10.70;99.90;;;;;;5192895;22;20329;-78
2024/01/26 08:13:05;;;;;;;5.80;3.22;;;11.10;99.90;;;;;;5193187;22;20072;-78
2024/01/26 08:15:07;;;;;;;6.70;2.65;;;11.00;99.90;;;;;;5193136;22;20024;-78
2024/01/26 08:17:07;;;;;;;6.70;3.15;;;10.70;99.90;;;;;;5193279;22;20054;-78
2024/01/26 08:19:08;;;;;;;5.63;2.75;;;11.10;99.90;;;;;;5193375;22;20050;-78
2024/01/26 08:21:10;;;;;;;5.45;2.55;;;10.90;99.90;;;;;;5231130;22;20019;-78
2024/01/26 08:23:11;;;;;;;5.00;2.80;;;10.90;99.90;;;;;;5244307;22;20076;-78
2024/01/26 08:25:12;;;;;;;4.53;2.33;;;10.70;99.90;;;;;;5244370;22;20093;-78
2024/01/26 08:27:13;;;;;;;4.93;2.10;;;10.80;99.90;;;;;;5244602;22;20006;-78
2024/01/26 08:29:14;;;;;;;4.82;2.50;;;11.20;99.90;;;;;;5244558;22;20034;-78
2024/01/26 08:31:14;;;;;;;5.90;2.30;;;11.40;99.90;;;;;;5244004;22;20045;-78
2024/01/26 08:33:15;;;;;;;3.97;2.42;;;10.80;99.90;;;;;;5243809;22;20021;-77
2024/01/26 08:35:16;;;;;;;6.80;2.28;;;11.40;99.90;;;;;;5244620;22;20025;-77
2024/01/26 08:37:17;;;;;;;4.03;2.35;;;10.80;99.90;;;;;;5217468;22;20007;-78
2024/01/26 08:39:18;;;;;;;5.85;2.55;;;10.80;99.90;;;;;;5244654;22;20038;-78
2024/01/26 08:41:19;;;;;;;3.13;1.98;;;11.50;99.90;;;;;;5244575;22;20014;-77
2024/01/26 08:43:19;;;;;;;4.40;2.10;;;11.30;99.90;;;;;;5244553;22;20011;-77
2024/01/26 08:45:20;;;;;;;3.75;2.22;;;10.70;99.90;;;;;;5244221;22;20019;-78
2024/01/26 08:47:22;;;;;;;6.60;2.25;;;11.00;99.90;;;;;;5244307;22;20019;-78
2024/01/26 08:49:23;;;;;;;5.10;2.38;;;;;;;;;;5244573;22;20084;-78
2024/01/26 08:51:24;;;;;;;3.78;1.83;;;;;;;;;;5244954;22;20026;-78
2024/01/26 08:53:25;;;;;;;9.05;2.45;;;;;;;;;;5245457;22;20022;-78
2024/01/26 08:55:26;;;;;;;5.47;1.75;;;;;;;;;;5246063;22;20496;-79
2024/01/26 08:57:26;;;;;;;7.93;2.25;;;10.90;99.90;;;;;;5245946;22;20026;-78
2024/01/26 08:59:28;;;;;;;4.97;2.45;;;11.50;99.90;;;;;;5245435;22;20015;-78
2024/01/26 09:01:30;;;;;;;8.13;2.85;;;11.50;99.90;;;;;;5246032;22;20326;-78
2024/01/26 09:03:32;;;;;;;7.20;2.85;;;;;;;;;;5246180;22;20011;-78
2024/01/26 09:05:33;;;;;;;11.02;2.88;;;11.00;99.90;;;;;;5246209;22;20029;-78
2024/01/26 09:07:34;;;;;;;6.20;2.63;;;10.70;99.90;;;;;;5217927;22;20027;-78
2024/01/26 09:09:34;;;;;;;11.75;2.85;;;10.70;99.90;;;;;;5245906;22;20015;-78
2024/01/26 09:11:35;;;;;;;4.90;1.80;;;11.10;99.90;;;;;;5245596;22;20099;-78
2024/01/26 09:13:35;;;;;;;5.90;1.65;;;11.20;99.90;;;;;;5218665;22;20061;-78
2024/01/26 09:15:36;;;;;;;13.18;2.10;;;10.70;99.90;;;;;;5246017;22;20041;-78
2024/01/26 09:17:37;;;;;;;9.45;1.77;;;10.60;99.90;;;;;;5245908;22;20023;-78
2024/01/26 09:19:38;;;;;;;5.40;0.90;;;10.50;99.90;;;;;;5245431;22;20006;-78
2024/01/26 09:21:38;;;;;;;1.15;0.60;;;11.00;99.90;;;;;;5245449;22;20069;-78
2024/01/26 09:23:43;;;;;;;2.15;0.30;;;10.80;99.90;;;;;;5245693;22;20007;-78
2024/01/26 09:25:45;;;;;;;2.50;0.63;;;10.50;99.90;;;;;;5245707;22;20018;-78
2024/01/26 09:27:46;;;;;;;2.83;0.85;;;9.70;99.90;;;;;;5245855;22;20013;-78
2024/01/26 09:29:46;;;;;;;3.80;0.60;;;10.20;99.90;;;;;;5245836;22;20437;-78
2024/01/26 09:31:47;;;;;;;1.80;0.50;;;9.70;99.90;;;;;;5245721;22;20018;-78
2024/01/26 09:33:47;;;;;;;0.98;0.45;;;10.60;99.90;;;;;;5244875;22;20018;-78
2024/01/26 09:35:48;;;;;;;2.63;0.45;;;10.90;99.90;;;;;;5245525;22;20010;-78
2024/01/26 09:37:49;;;;;;;1.85;0.40;;;9.80;99.90;;;;;;5245754;22;20425;-78
2024/01/26 09:39:49;;;;;;;3.00;0.30;;;9.30;99.90;;;;;;5245794;22;20089;-78
2024/01/26 09:41:50;;;;;;;6.18;0.70;;;9.40;99.90;;;;;;5246017;22;20406;-78
2024/01/26 09:43:51;;;;;;;5.05;0.60;;;9.90;99.90;;;;;;5245651;22;20011;-78
2024/01/26 09:45:53;;;;;;;2.65;0.52;;;10.60;99.90;;;;;;5245950;22;20015;-78
2024/01/26 09:47:54;;;;;;;8.13;1.00;;;10.40;99.90;;;;;;5245969;22;20067;-78
2024/01/26 09:49:56;;;;;;;12.48;2.13;;;10.80;99.90;;;;;;5245777;22;20015;-78
2024/01/26 09:51:57;;;;;;;4.07;0.93;;;10.00;99.90;;;;;;5245557;22;20015;-78
2024/01/26 09:54:00;;;;;;;8.98;1.17;;;10.30;99.90;;;;;;5245529;22;20094;-78
2024/01/26 09:56:04;;;;;;;10.35;1.00;;;10.20;99.90;;;;;;5245059;22;20086;-77
2024/01/26 09:58:05;;;;;;;13.40;1.33;;;9.10;99.90;;;;;;5245794;22;20021;-78
2024/01/26 10:00:10;;;;;;;7.40;0.98;;;8.90;99.90;;;;;;5245799;22;20526;-78
2024/01/26 10:02:12;;;;;;;9.38;2.20;;;9.10;99.90;;;;;;5244974;22;20015;-78
2024/01/26 10:04:13;;;;;;;10.85;1.33;;;9.80;99.90;;;;;;5245825;22;20394;-78
2024/01/26 10:06:14;;;;;;;10.55;2.45;;;10.00;99.90;;;;;;5245259;22;20046;-78
2024/01/26 10:08:16;;;;;;;13.07;1.65;;;9.50;99.90;;;;;;5246249;22;20018;-78
2024/01/26 10:10:18;;;;;;;11.68;1.63;;;9.90;99.90;;;;;;5245585;22;20019;-78
2024/01/26 10:12:19;;;;;;;11.40;1.25;;;8.80;99.90;;;;;;5245934;22;20019;-78
2024/01/26 10:14:23;;;;;;;11.05;1.90;;;9.70;99.90;;;;;;5245285;22;20054;-78
2024/01/26 10:16:23;;;;;;;14.88;1.48;;;8.90;99.90;;;;;;5245643;22;20319;-79
2024/01/26 10:18:24;;;;;;;15.35;2.05;;;8.80;99.90;;;;;;5245704;22;20022;-79
2024/01/26 10:20:25;;;;;;;18.05;2.47;;;10.10;99.90;;;;;;5244951;22;20121;-79
2024/01/26 10:22:25;;;;;;;11.80;1.90;;;8.60;99.90;;;;;;5245317;22;20080;-79
2024/01/26 10:24:27;;;;;;;13.27;1.60;;;8.80;99.90;;;;;;5245873;22;20472;-78
2024/01/26 10:26:28;;;;;;;14.68;2.45;;;10.10;99.90;;;;;;5246104;22;20019;-79